createdAt,value
2023-01-23T00:01:35.183Z,102941.03
2023-01-23T00:04:05.874Z,102938.63
2023-01-23T00:06:33.808Z,102935.13
2023-01-23T00:09:01.688Z,102940.53
2023-01-23T00:11:32.622Z,102946.81
2023-01-23T00:14:01.852Z,102933.72
2023-01-23T00:16:32.034Z,102934.63
2023-01-23T00:18:59.846Z,102933.97
2023-01-23T00:21:29.086Z,102928.75
2023-01-23T00:23:59.405Z,102919.03
2023-01-23T00:26:29.759Z,102920.81
2023-01-23T00:28:57.576Z,102923.47
2023-01-23T00:31:29.121Z,102924.41
2023-01-23T00:34:02.057Z,102926.31
2023-01-23T00:36:40.511Z,102924.72
2023-01-23T00:39:15.102Z,102926.56
2023-01-23T00:41:46.009Z,102922.19
2023-01-23T00:44:14.189Z,102922.22
2023-01-23T00:46:42.325Z,102921.34
2023-01-23T00:49:10.023Z,102923.97
2023-01-23T00:51:37.685Z,102923.97
2023-01-23T00:54:05.982Z,102928.41
2023-01-23T00:56:33.583Z,102927.59
2023-01-23T00:59:01.290Z,102932.09
2023-01-23T01:01:31.592Z,102940.19
2023-01-23T01:04:00.452Z,102934.84
2023-01-23T01:06:29.843Z,102940.19
2023-01-23T01:08:59.576Z,102942.84
2023-01-23T01:11:27.273Z,102943.78
2023-01-23T01:13:54.872Z,102942.09
2023-01-23T01:16:24.460Z,102951.88
2023-01-23T01:18:52.204Z,102949.22
2023-01-23T01:21:20.206Z,102943.78
2023-01-23T01:23:47.988Z,102945.59
2023-01-23T01:26:15.591Z,102940.19
2023-01-23T01:28:43.388Z,102942.84
2023-01-23T01:31:14.534Z,102937.53
2023-01-23T01:33:43.107Z,102937.53
2023-01-23T01:36:15.746Z,102934.09
2023-01-23T01:38:44.367Z,102929.69
2023-01-23T01:41:13.322Z,102933.34
2023-01-23T01:43:42.090Z,102932.41
2023-01-23T01:46:18.983Z,102928.06
2023-01-23T01:49:02.329Z,102920.16
2023-01-23T01:51:44.193Z,102916.69
2023-01-23T01:54:35.668Z,102930.00
2023-01-23T01:57:18.454Z,102934.53
2023-01-23T02:00:12.686Z,102931.91
2023-01-23T02:02:53.521Z,102920.44
2023-01-23T02:05:26.061Z,102923.94
2023-01-23T02:08:03.825Z,102916.91
2023-01-23T02:10:33.822Z,102921.25
2023-01-23T02:13:39.336Z,102930.94
2023-01-23T02:16:08.919Z,102922.13
2023-01-23T02:18:42.724Z,102922.97
2023-01-23T02:21:12.930Z,102926.44
2023-01-23T02:23:52.672Z,102931.66
2023-01-23T02:26:29.241Z,102923.69
2023-01-23T02:28:57.435Z,102931.59
2023-01-23T02:31:28.916Z,102929.78
2023-01-23T02:33:59.081Z,102921.81
2023-01-23T02:36:30.748Z,102927.13
2023-01-23T02:39:27.654Z,102929.78
2023-01-23T02:41:58.167Z,102936.03
2023-01-23T02:44:39.659Z,102933.38
2023-01-23T02:47:11.925Z,102937.84
2023-01-23T02:52:43.687Z,102936.25
2023-01-23T02:55:11.505Z,102932.84
2023-01-23T02:57:39.210Z,102926.69
2023-01-23T03:00:16.567Z,102930.16
2023-01-23T03:02:45.572Z,102926.69
2023-01-23T03:05:13.658Z,102929.34
2023-01-23T03:07:41.365Z,102913.50
2023-01-23T03:10:12.378Z,102920.53
2023-01-23T03:12:43.595Z,102917.78
2023-01-23T03:15:11.819Z,102920.38
2023-01-23T03:17:40.223Z,102915.81
2023-01-23T03:20:08.833Z,102923.69
2023-01-23T03:22:36.383Z,102926.28
2023-01-23T03:25:04.244Z,102923.59
2023-01-23T03:27:32.900Z,102927.13
2023-01-23T03:30:21.952Z,102933.38
2023-01-23T03:32:52.626Z,102924.66
2023-01-23T03:35:20.533Z,102920.19
2023-01-23T03:37:52.361Z,102923.78
2023-01-23T03:40:41.414Z,102922.03
2023-01-23T03:43:10.857Z,102917.66
2023-01-23T03:45:43.656Z,102912.41
2023-01-23T03:48:11.295Z,102913.28
2023-01-23T03:50:39.065Z,102906.22
2023-01-23T03:53:06.705Z,102901.78
2023-01-23T03:55:34.299Z,102906.09
2023-01-23T03:58:01.867Z,102891.94
2023-01-23T04:00:31.590Z,102890.13
2023-01-23T04:03:06.855Z,102883.97
2023-01-23T04:05:35.246Z,102885.75
2023-01-23T04:08:03.206Z,102885.81
2023-01-23T04:10:31.485Z,102891.06
2023-01-23T04:13:04.696Z,102898.06
2023-01-23T04:15:35.443Z,102894.38
2023-01-23T04:18:06.974Z,102896.88
2023-01-23T04:20:34.665Z,102902.00
2023-01-23T04:23:02.215Z,102896.56
2023-01-23T04:25:30.892Z,102887.66
2023-01-23T04:27:58.591Z,102882.41
2023-01-23T04:30:26.326Z,102890.38
2023-01-23T04:32:54.143Z,102892.19
2023-01-23T04:35:21.775Z,102893.03
2023-01-23T04:37:49.365Z,102903.59
2023-01-23T04:40:17.747Z,102916.00
2023-01-23T04:42:53.186Z,102919.50
2023-01-23T04:45:47.134Z,102928.41
2023-01-23T04:48:32.426Z,102947.00
2023-01-23T04:51:00.076Z,102949.50
2023-01-23T04:53:27.851Z,102962.59
2023-01-23T04:56:01.092Z,102960.56
2023-01-23T04:58:28.974Z,102959.28
2023-01-23T05:01:07.161Z,102948.28
2023-01-23T05:03:37.428Z,102947.13
2023-01-23T05:06:05.300Z,102936.16
2023-01-23T05:08:34.188Z,102915.63
2023-01-23T05:11:34.487Z,102872.84
2023-01-23T05:14:02.804Z,102867.41
2023-01-23T05:16:32.251Z,102886.78
2023-01-23T05:19:19.788Z,102905.41
2023-01-23T05:21:48.017Z,102904.47
2023-01-23T05:24:18.481Z,102898.16
2023-01-23T05:26:46.624Z,102896.34
2023-01-23T05:29:14.815Z,102886.56
2023-01-23T05:31:52.088Z,102888.31
2023-01-23T05:34:40.032Z,102897.97
2023-01-23T05:37:18.410Z,102919.22
2023-01-23T05:39:50.149Z,102914.81
2023-01-23T05:42:19.018Z,102909.41
2023-01-23T05:44:58.344Z,102913.81
2023-01-23T05:47:39.332Z,102907.69
2023-01-23T05:50:08.989Z,102919.22
2023-01-23T05:52:37.956Z,102929.00
2023-01-23T05:55:06.932Z,102923.69
2023-01-23T05:57:35.959Z,102921.91
2023-01-23T06:00:41.902Z,102914.94
2023-01-23T06:03:33.237Z,102923.06
2023-01-23T06:06:24.505Z,102924.03
2023-01-23T06:08:52.999Z,102936.50
2023-01-23T06:11:20.543Z,102933.75
2023-01-23T06:13:48.189Z,102938.16
2023-01-23T06:16:15.843Z,102950.53
2023-01-23T06:18:43.485Z,102952.28
2023-01-23T06:21:11.328Z,102951.41
2023-01-23T06:23:39.766Z,102948.75
2023-01-23T06:26:07.352Z,102949.59
2023-01-23T06:28:36.172Z,102946.00
2023-01-23T06:31:06.589Z,102942.47
2023-01-23T06:33:51.870Z,102944.38
2023-01-23T06:36:22.148Z,102948.75
2023-01-23T06:38:50.322Z,102946.09
2023-01-23T06:41:22.869Z,102960.34
2023-01-23T06:43:53.724Z,102961.19
2023-01-23T06:46:24.719Z,102950.66
2023-01-23T06:48:54.306Z,102963.16
2023-01-23T06:51:22.498Z,102959.63
2023-01-23T06:53:50.435Z,102962.38
2023-01-23T06:56:18.137Z,102968.56
2023-01-23T06:58:46.846Z,102974.69
2023-01-23T07:01:26.507Z,102975.63
2023-01-23T07:04:12.763Z,102976.47
2023-01-23T07:06:42.232Z,102977.34
2023-01-23T07:09:11.825Z,102976.34
2023-01-23T07:11:40.311Z,102984.34
2023-01-23T07:14:08.737Z,102987.00
2023-01-23T07:16:38.456Z,102992.31
2023-01-23T07:19:06.492Z,102995.84
2023-01-23T07:21:36.797Z,102995.84
2023-01-23T07:24:04.838Z,102998.50
2023-01-23T07:26:32.866Z,103000.31
2023-01-23T07:29:00.475Z,103009.16
2023-01-23T07:31:28.289Z,103018.03
2023-01-23T07:33:55.902Z,103026.03
2023-01-23T07:36:23.452Z,103027.75
2023-01-23T07:38:51.179Z,103032.97
2023-01-23T07:41:18.833Z,103029.34
2023-01-23T07:43:46.627Z,103037.22
2023-01-23T07:46:14.603Z,103025.59
2023-01-23T07:48:42.264Z,103021.13
2023-01-23T07:51:10.158Z,103021.13
2023-01-23T07:53:37.791Z,103017.53
2023-01-23T07:56:06.301Z,103006.84
2023-01-23T07:58:34.227Z,103000.56
2023-01-23T08:01:08.824Z,102997.91
2023-01-23T08:03:36.574Z,102992.56
2023-01-23T08:06:04.399Z,102995.31
2023-01-23T08:08:32.097Z,103001.44
2023-01-23T08:11:03.273Z,103009.41
2023-01-23T08:13:30.859Z,103012.09
2023-01-23T08:15:59.439Z,103017.28
2023-01-23T08:18:29.524Z,103025.22
2023-01-23T08:20:58.754Z,103033.97
2023-01-23T08:23:32.204Z,103027.66
2023-01-23T08:26:02.275Z,103020.44
2023-01-23T08:28:30.046Z,103025.78
2023-01-23T08:31:04.821Z,103024.91
2023-01-23T08:33:34.930Z,103013.41
2023-01-23T08:36:03.229Z,103024.03
2023-01-23T08:38:31.934Z,103024.91
2023-01-23T08:41:01.508Z,103024.91
2023-01-23T08:43:29.979Z,103024.03
2023-01-23T08:45:59.381Z,103033.03
2023-01-23T08:48:27.890Z,103026.88
2023-01-23T08:51:07.905Z,103026.88
2023-01-23T08:53:36.528Z,103023.31
2023-01-23T08:56:07.257Z,103019.81
2023-01-23T08:58:35.173Z,103020.81
2023-01-23T09:01:02.804Z,103031.41
2023-01-23T09:03:30.568Z,103035.75
2023-01-23T09:06:02.183Z,103030.34
2023-01-23T09:08:29.809Z,103028.63
2023-01-23T09:11:02.411Z,103035.63
2023-01-23T09:13:30.255Z,103031.06
2023-01-23T09:15:58.265Z,103038.97
2023-01-23T09:18:26.192Z,103046.91
2023-01-23T09:20:54.623Z,103038.84
2023-01-23T09:23:22.858Z,103035.13
2023-01-23T09:25:50.583Z,103035.97
2023-01-23T09:28:18.258Z,103040.31
2023-01-23T09:30:45.922Z,103042.88
2023-01-23T09:33:13.575Z,103051.59
2023-01-23T09:35:41.338Z,103059.59
2023-01-23T09:38:09.019Z,103068.53
2023-01-23T09:40:49.992Z,103059.66
2023-01-23T09:44:07.669Z,103064.91
2023-01-23T09:46:37.893Z,103070.25
2023-01-23T09:49:17.433Z,103069.34
2023-01-23T09:51:49.764Z,103072.78
2023-01-23T09:54:36.077Z,103076.25
2023-01-23T09:57:12.652Z,103083.19
2023-01-23T09:59:58.399Z,103073.41
2023-01-23T10:02:27.970Z,103072.50
2023-01-23T10:04:58.153Z,103078.69
2023-01-23T10:07:28.705Z,103080.50
2023-01-23T10:10:02.041Z,103081.28
2023-01-23T10:12:51.770Z,103080.28
2023-01-23T10:15:28.112Z,103078.47
2023-01-23T10:18:07.682Z,103066.97
2023-01-23T10:20:47.064Z,103072.28
2023-01-23T10:23:24.404Z,103065.25
2023-01-23T10:25:53.131Z,103070.56
2023-01-23T10:28:29.923Z,103074.00
2023-01-23T10:31:04.048Z,103085.50
2023-01-23T10:33:38.260Z,103095.22
2023-01-23T10:36:41.828Z,103098.63
2023-01-23T10:39:31.704Z,103089.63
2023-01-23T10:42:02.352Z,103089.59
2023-01-23T10:44:30.735Z,103091.31
2023-01-23T10:47:02.285Z,103092.97
2023-01-23T10:49:35.358Z,103103.53
2023-01-23T10:52:03.968Z,103095.53
2023-01-23T10:54:45.849Z,103095.44
2023-01-23T10:57:13.479Z,103106.94
2023-01-23T10:59:52.946Z,103100.59
2023-01-23T11:02:32.617Z,103101.38
2023-01-23T11:05:01.225Z,103100.41
2023-01-23T11:07:37.081Z,103099.47
2023-01-23T11:10:07.580Z,103104.66
2023-01-23T11:12:47.903Z,103093.94
2023-01-23T11:15:40.926Z,103091.28
2023-01-23T11:18:31.196Z,103097.53
2023-01-23T11:20:59.326Z,103089.47
2023-01-23T11:23:27.522Z,103085.00
2023-01-23T11:25:55.866Z,103087.66
2023-01-23T11:28:27.927Z,103085.00
2023-01-23T11:31:14.114Z,103094.72
2023-01-23T11:34:03.671Z,103092.06
2023-01-23T11:36:48.686Z,103085.81
2023-01-23T11:39:36.938Z,103086.69
2023-01-23T11:42:04.803Z,103093.69
2023-01-23T11:44:45.108Z,103084.66
2023-01-23T11:47:34.619Z,103090.72
2023-01-23T11:50:11.788Z,103088.88
2023-01-23T11:53:41.109Z,103086.28
2023-01-23T11:56:30.776Z,103080.00
2023-01-23T11:59:24.028Z,103079.88
2023-01-23T12:02:03.043Z,103076.22
2023-01-23T12:04:59.328Z,103072.69
2023-01-23T12:07:27.662Z,103075.28
2023-01-23T12:10:28.136Z,103074.34
2023-01-23T12:13:23.529Z,103080.47
2023-01-23T12:16:16.168Z,103083.06
2023-01-23T12:19:17.645Z,103089.22
2023-01-23T12:22:15.688Z,103090.03
2023-01-23T12:25:12.223Z,103091.66
2023-01-23T12:27:45.546Z,103086.19
2023-01-23T12:30:39.055Z,103086.19
2023-01-23T12:33:35.669Z,103085.28
2023-01-23T12:36:14.306Z,103085.28
2023-01-23T12:38:41.888Z,103091.41
2023-01-23T12:41:22.273Z,103091.41
2023-01-23T12:43:57.613Z,103087.88
2023-01-23T12:47:12.865Z,103087.00
2023-01-23T12:49:50.914Z,103086.06
2023-01-23T12:52:40.167Z,103089.63
2023-01-23T12:55:31.366Z,103094.97
2023-01-23T12:58:08.893Z,103088.59
2023-01-23T13:01:14.214Z,103087.56
2023-01-23T13:03:58.045Z,103095.38
2023-01-23T13:06:32.214Z,103097.16
2023-01-23T13:09:17.735Z,103098.81
2023-01-23T13:12:19.655Z,103089.00
2023-01-23T13:15:06.858Z,103097.78
2023-01-23T13:17:41.781Z,103091.44
2023-01-23T13:20:49.254Z,103099.28
2023-01-23T13:23:23.187Z,103078.78
2023-01-23T13:26:15.344Z,103078.78
2023-01-23T13:28:53.978Z,103076.16
2023-01-23T13:31:46.444Z,103069.16
2023-01-23T13:34:17.366Z,103066.56
2023-01-23T13:36:47.087Z,103060.41
2023-01-23T13:39:17.683Z,103044.41
2023-01-23T13:41:46.381Z,103053.38
2023-01-23T13:44:40.209Z,103052.41
2023-01-23T14:22:40.127Z,103116.22
2023-01-23T14:25:17.642Z,103121.56
2023-01-23T14:27:53.185Z,103123.34
2023-01-23T14:30:27.347Z,103131.34
2023-01-23T14:32:55.744Z,103136.69
2023-01-23T14:35:24.833Z,103129.63
2023-01-23T14:37:56.343Z,103131.44
2023-01-23T14:40:28.044Z,103136.69
2023-01-23T14:43:04.898Z,103133.16
2023-01-23T14:45:33.507Z,103130.50
2023-01-23T14:48:06.668Z,103135.81
2023-01-23T14:50:34.999Z,103132.28
2023-01-23T14:53:07.087Z,103138.63
2023-01-23T14:55:39.906Z,103139.59
2023-01-23T14:58:14.714Z,103142.34
2023-01-23T15:00:46.357Z,103145.88
2023-01-23T15:03:38.433Z,103140.59
2023-01-23T15:06:20.539Z,103145.91
2023-01-23T15:08:49.792Z,103152.13
2023-01-23T15:11:25.361Z,103152.19
2023-01-23T15:13:58.760Z,103147.81
2023-01-23T15:16:34.119Z,103143.34
2023-01-23T15:19:08.124Z,103146.00
2023-01-23T15:21:41.614Z,103146.00
2023-01-23T15:24:09.283Z,103159.34
2023-01-23T15:26:38.763Z,103161.06
2023-01-23T15:29:09.439Z,103161.06
2023-01-23T15:31:39.946Z,103157.53
2023-01-23T15:34:16.905Z,103161.88
2023-01-23T15:37:19.646Z,103166.38
2023-01-23T15:39:54.385Z,103168.13
2023-01-23T15:42:26.686Z,103156.69
2023-01-23T15:44:54.943Z,103160.25
2023-01-23T15:47:22.561Z,103156.81
2023-01-23T15:49:50.170Z,103150.75
2023-01-23T15:52:29.271Z,103142.97
2023-01-23T15:55:03.357Z,103147.59
2023-01-23T15:57:31.054Z,103152.09
2023-01-23T15:59:58.656Z,103150.53
2023-01-23T16:02:31.627Z,103154.25
2023-01-23T16:05:02.207Z,103153.38
2023-01-23T16:07:36.017Z,103160.47
2023-01-23T16:10:31.170Z,103165.00
2023-01-23T16:12:58.794Z,103171.28
2023-01-23T16:15:29.243Z,103173.94
2023-01-23T16:17:57.360Z,103175.75
2023-01-23T16:20:31.819Z,103177.50
2023-01-23T16:23:14.119Z,103172.19
2023-01-23T16:25:45.353Z,103173.06
2023-01-23T16:28:18.558Z,103183.75
2023-01-23T16:30:47.548Z,103189.09
2023-01-23T16:33:15.935Z,103189.00
2023-01-23T16:35:44.518Z,103193.41
2023-01-23T16:38:27.175Z,103198.72
2023-01-23T16:40:57.060Z,103200.53
2023-01-23T16:43:24.809Z,103198.81
2023-01-23T16:45:56.127Z,103201.47
2023-01-23T16:48:27.989Z,103204.06
2023-01-23T16:51:04.889Z,103213.88
2023-01-23T16:53:42.632Z,103208.63
2023-01-23T16:56:21.022Z,103212.97
2023-01-23T16:58:49.728Z,103219.16
2023-01-23T17:01:23.114Z,103215.63
2023-01-23T17:04:00.966Z,103212.03
2023-01-23T17:06:28.886Z,103210.31
2023-01-23T17:08:56.817Z,103215.69
2023-01-23T17:11:29.600Z,103220.97
2023-01-23T17:14:05.412Z,103222.75
2023-01-23T17:16:33.105Z,103220.91
2023-01-23T17:19:06.770Z,103218.16
2023-01-23T17:21:35.041Z,103224.44
2023-01-23T17:24:02.675Z,103224.44
2023-01-23T17:26:30.312Z,103226.09
2023-01-23T17:28:58.046Z,103234.97
2023-01-23T17:31:28.805Z,103236.66
2023-01-23T17:33:56.708Z,103241.00
2023-01-23T17:36:26.419Z,103248.94
2023-01-23T17:38:57.451Z,103246.22
2023-01-23T17:41:25.215Z,103248.88
2023-01-23T17:43:53.270Z,103244.44
2023-01-23T17:46:29.485Z,103241.88
2023-01-23T17:48:57.448Z,103245.47
2023-01-23T17:51:26.770Z,103240.19
2023-01-23T17:53:55.122Z,103246.47
2023-01-23T17:56:22.929Z,103240.25
2023-01-23T17:58:50.765Z,103244.66
2023-01-23T18:01:22.390Z,103248.19
2023-01-23T18:03:51.388Z,103253.47
2023-01-23T18:06:19.725Z,103263.25
2023-01-23T18:08:47.624Z,103261.53
2023-01-23T18:11:23.546Z,103251.81
2023-01-23T18:14:02.101Z,103261.66
2023-01-23T18:16:39.991Z,103257.28
2023-01-23T18:19:17.638Z,103259.97
2023-01-23T18:21:47.663Z,103261.88
2023-01-23T18:24:33.071Z,103254.72
2023-01-23T18:27:11.878Z,103258.25
2023-01-23T18:30:00.969Z,103265.41
2023-01-23T18:32:52.853Z,103260.06
2023-01-23T18:35:54.020Z,103262.03
2023-01-23T18:38:27.525Z,103263.84
2023-01-23T18:41:10.442Z,103262.97
2023-01-23T18:43:42.502Z,103259.38
2023-01-23T18:46:19.539Z,103262.03
2023-01-23T18:48:49.562Z,103262.91
2023-01-23T18:51:34.741Z,103259.38
2023-01-23T18:54:14.404Z,103259.31
2023-01-23T18:57:26.819Z,103268.13
2023-01-23T19:00:03.821Z,103273.28
2023-01-23T19:02:38.277Z,103274.16
2023-01-23T19:05:13.869Z,103274.06
2023-01-23T19:07:42.575Z,103267.81
2023-01-23T19:10:22.017Z,103267.75
2023-01-23T19:12:52.598Z,103277.50
2023-01-23T19:15:38.542Z,103277.50
2023-01-23T19:18:39.855Z,103272.94
2023-01-23T19:21:26.385Z,103277.34
2023-01-23T19:24:07.176Z,103280.84
2023-01-23T19:26:41.029Z,103284.22
2023-01-23T19:29:21.138Z,103291.28
2023-01-23T19:32:06.500Z,103297.44
2023-01-23T19:34:35.228Z,103300.13
2023-01-23T19:37:04.020Z,103300.91
2023-01-23T19:39:32.042Z,103301.75
2023-01-23T19:42:00.525Z,103305.25
2023-01-23T19:44:30.041Z,103306.09
2023-01-23T19:46:58.086Z,103301.63
2023-01-23T19:49:26.034Z,103306.19
2023-01-23T19:51:53.728Z,103306.22
2023-01-23T19:54:24.079Z,103296.53
2023-01-23T19:56:52.388Z,103294.03
2023-01-23T19:59:20.960Z,103288.72
2023-01-23T20:01:52.500Z,103295.03
2023-01-23T20:04:24.098Z,103296.84
2023-01-23T20:06:52.517Z,103291.50
2023-01-23T20:09:21.104Z,103303.00
2023-01-23T20:11:49.311Z,103301.16
2023-01-23T20:14:16.995Z,103295.75
2023-01-23T20:16:44.735Z,103300.25
2023-01-23T20:19:16.582Z,103295.81
2023-01-23T20:21:44.655Z,103290.53
2023-01-23T20:24:13.237Z,103303.81
2023-01-23T20:26:41.460Z,103303.00
2023-01-23T20:29:09.293Z,103295.91
2023-01-23T20:31:37.170Z,103299.47
2023-01-23T20:34:04.968Z,103303.00
2023-01-23T20:36:32.650Z,103299.47
2023-01-23T20:39:00.276Z,103303.88
2023-01-23T20:41:28.554Z,103307.47
2023-01-23T20:43:56.189Z,103305.66
2023-01-23T20:46:24.024Z,103318.06
2023-01-23T20:48:51.777Z,103312.72
2023-01-23T20:51:19.875Z,103309.19
2023-01-23T20:53:47.920Z,103302.97
2023-01-23T20:56:20.397Z,103302.97
2023-01-23T20:59:07.825Z,103304.81
2023-01-23T21:01:57.808Z,103299.47
2023-01-23T21:04:28.599Z,103303.91
2023-01-23T21:06:56.597Z,103320.81
2023-01-23T21:09:24.436Z,103317.25
2023-01-23T21:11:53.074Z,103310.91
2023-01-23T21:14:21.850Z,103320.72
2023-01-23T21:16:49.771Z,103315.38
2023-01-23T21:19:18.264Z,103314.53
2023-01-23T21:21:46.422Z,103316.38
2023-01-23T21:24:14.306Z,103307.53
2023-01-23T21:26:42.118Z,103319.19
2023-01-23T21:29:10.068Z,103313.06
2023-01-23T21:31:39.529Z,103314.06
2023-01-23T21:34:10.740Z,103318.53
2023-01-23T21:36:39.334Z,103324.72
2023-01-23T21:39:09.322Z,103319.31
2023-01-23T21:41:37.895Z,103319.31
2023-01-23T21:44:05.597Z,103327.31
2023-01-23T21:46:33.297Z,103327.31
2023-01-23T21:49:01.079Z,103326.34
2023-01-23T21:51:28.965Z,103326.34
2023-01-23T21:53:56.546Z,103327.19
2023-01-23T21:56:24.499Z,103319.19
2023-01-23T21:58:53.185Z,103320.94
2023-01-23T22:01:32.951Z,103321.00
2023-01-23T22:04:02.576Z,103324.59
2023-01-23T22:06:31.571Z,103319.31
2023-01-23T22:08:59.300Z,103322.91
2023-01-23T22:11:27.046Z,103330.94
2023-01-23T22:13:54.743Z,103324.72
2023-01-23T22:16:28.541Z,103326.53
2023-01-23T22:19:08.544Z,103330.06
2023-01-23T22:21:36.209Z,103327.41
2023-01-23T22:24:04.108Z,103327.31
2023-01-23T22:26:31.899Z,103329.00
2023-01-23T22:28:59.582Z,103329.00
2023-01-23T22:31:27.219Z,103331.63
2023-01-23T22:33:55.424Z,103338.72
2023-01-23T22:36:23.008Z,103335.19
2023-01-23T22:38:54.991Z,103336.97
2023-01-23T22:41:23.959Z,103341.47
2023-01-23T22:43:56.143Z,103343.28
2023-01-23T22:46:24.352Z,103346.00
2023-01-23T22:48:52.099Z,103346.00
2023-01-23T22:51:24.380Z,103346.91
2023-01-23T22:53:53.626Z,103352.25
2023-01-23T22:56:22.012Z,103343.28
2023-01-23T22:58:52.025Z,103350.34
2023-01-23T23:01:23.390Z,103341.41
2023-01-23T23:03:51.538Z,103345.84
2023-01-23T23:06:20.375Z,103346.69
2023-01-23T23:08:48.760Z,103345.72
2023-01-23T23:11:22.040Z,103352.75
2023-01-23T23:13:50.601Z,103354.53
2023-01-23T23:16:22.135Z,103355.44
2023-01-23T23:18:53.794Z,103359.88
2023-01-23T23:21:24.334Z,103352.75
2023-01-23T23:23:56.740Z,103355.44
2023-01-23T23:26:26.655Z,103358.97
2023-01-23T23:28:55.223Z,103363.44
2023-01-23T23:31:23.095Z,103364.31
2023-01-23T23:33:50.943Z,103365.94
2023-01-23T23:36:18.758Z,103367.75
2023-01-23T23:38:46.479Z,103367.75
2023-01-23T23:41:15.625Z,103363.38
2023-01-23T23:43:44.056Z,103368.69
2023-01-23T23:46:13.386Z,103369.69
2023-01-23T23:48:41.817Z,103378.56
2023-01-23T23:51:13.582Z,103376.78
2023-01-23T23:53:41.992Z,103381.22
2023-01-23T23:56:14.146Z,103374.13
2023-01-23T23:58:41.794Z,103379.47
